sensor_id;sensor_type;location;lat;lon;timestamp;pressure;altitude;pressure_sealevel;temperature;humidity
65157;BME280;52745;49.794;18.258;2023-05-03T00:00:03;-16238.38;;;11.28;100.00
65157;BME280;52745;49.794;18.258;2023-05-03T00:02:53;-16240.28;;;11.35;100.00
65157;BME280;52745;49.794;18.258;2023-05-03T00:05:24;-16239.06;;;11.31;100.00
65157;BME280;52745;49.794;18.258;2023-05-03T00:07:51;-16237.44;;;11.25;100.00
65157;BME280;52745;49.794;18.258;2023-05-03T00:10:18;-16235.13;;;11.16;100.00
65157;BME280;52745;49.794;18.258;2023-05-03T00:12:45;-16235.50;;;11.17;100.00
65157;BME280;52745;49.794;18.258;2023-05-03T00:15:11;-16234.44;;;11.13;100.00
65157;BME280;52745;49.794;18.258;2023-05-03T00:17:38;-16234.84;;;11.15;100.00
65157;BME280;52745;49.794;18.258;2023-05-03T00:20:05;-16236.75;;;11.22;100.00
65157;BME280;52745;49.794;18.258;2023-05-03T00:22:33;-16236.19;;;11.20;100.00
65157;BME280;52745;49.794;18.258;2023-05-03T00:25:01;-16236.88;;;11.23;100.00
65157;BME280;52745;49.794;18.258;2023-05-03T00:27:27;-16236.34;;;11.21;100.00
65157;BME280;52745;49.794;18.258;2023-05-03T00:29:54;-16236.19;;;11.20;100.00
65157;BME280;52745;49.794;18.258;2023-05-03T00:32:21;-16235.38;;;11.17;100.00
65157;BME280;52745;49.794;18.258;2023-05-03T00:34:52;-16235.38;;;11.17;100.00
65157;BME280;52745;49.794;18.258;2023-05-03T00:37:20;-16235.66;;;11.18;100.00
65157;BME280;52745;49.794;18.258;2023-05-03T00:39:47;-16234.84;;;11.15;100.00
65157;BME280;52745;49.794;18.258;2023-05-03T00:42:13;-16233.47;;;11.10;100.00
65157;BME280;52745;49.794;18.258;2023-05-03T00:44:41;-16233.75;;;11.11;100.00
65157;BME280;52745;49.794;18.258;2023-05-03T00:47:08;-16233.47;;;11.10;100.00
65157;BME280;52745;49.794;18.258;2023-05-03T00:49:35;-16233.34;;;11.09;100.00
65157;BME280;52745;49.794;18.258;2023-05-03T00:52:02;-16233.59;;;11.10;100.00
65157;BME280;52745;49.794;18.258;2023-05-03T00:54:29;-16232.94;;;11.08;100.00
65157;BME280;52745;49.794;18.258;2023-05-03T00:56:58;-16234.56;;;11.14;100.00
65157;BME280;52745;49.794;18.258;2023-05-03T00:59:25;-16234.97;;;11.15;100.00
65157;BME280;52745;49.794;18.258;2023-05-03T01:01:53;-16235.38;;;11.17;100.00
65157;BME280;52745;49.794;18.258;2023-05-03T01:04:20;-16235.25;;;11.16;100.00
65157;BME280;52745;49.794;18.258;2023-05-03T01:06:54;-16235.78;;;11.18;100.00
65157;BME280;52745;49.794;18.258;2023-05-03T01:09:37;-16237.56;;;11.25;100.00
65157;BME280;52745;49.794;18.258;2023-05-03T01:17:11;-16234.97;;;11.15;100.00
65157;BME280;52745;49.794;18.258;2023-05-03T01:19:43;-16236.34;;;11.21;100.00
65157;BME280;52745;49.794;18.258;2023-05-03T01:24:40;-16234.44;;;11.13;100.00
65157;BME280;52745;49.794;18.258;2023-05-03T01:27:07;-16233.47;;;11.10;100.00
65157;BME280;52745;49.794;18.258;2023-05-03T01:29:34;-16234.97;;;11.15;100.00
65157;BME280;52745;49.794;18.258;2023-05-03T01:32:02;-16234.44;;;11.13;100.00
65157;BME280;52745;49.794;18.258;2023-05-03T01:37:08;-16228.28;;;10.90;100.00
65157;BME280;52745;49.794;18.258;2023-05-03T01:42:08;-16224.22;;;10.75;100.00
65157;BME280;52745;49.794;18.258;2023-05-03T01:44:36;-16224.06;;;10.74;100.00
65157;BME280;52745;49.794;18.258;2023-05-03T01:47:03;-16222.44;;;10.68;100.00
65157;BME280;52745;49.794;18.258;2023-05-03T01:49:32;-16221.34;;;10.64;100.00
65157;BME280;52745;49.794;18.258;2023-05-03T01:52:00;-16221.22;;;10.64;100.00
65157;BME280;52745;49.794;18.258;2023-05-03T01:54:26;-16220.66;;;10.62;100.00
65157;BME280;52745;49.794;18.258;2023-05-03T01:56:54;-16217.94;;;10.51;100.00
65157;BME280;52745;49.794;18.258;2023-05-03T01:59:21;-16218.75;;;10.54;100.00
65157;BME280;52745;49.794;18.258;2023-05-03T02:01:47;-16217.25;;;10.49;100.00
65157;BME280;52745;49.794;18.258;2023-05-03T02:04:14;-16215.88;;;10.44;100.00
65157;BME280;52745;49.794;18.258;2023-05-03T02:06:41;-16215.22;;;10.41;100.00
65157;BME280;52745;49.794;18.258;2023-05-03T02:09:07;-16214.66;;;10.39;100.00
65157;BME280;52745;49.794;18.258;2023-05-03T02:11:34;-16213.03;;;10.33;100.00
65157;BME280;52745;49.794;18.258;2023-05-03T02:14:01;-16211.78;;;10.28;100.00
65157;BME280;52745;49.794;18.258;2023-05-03T02:16:28;-16212.22;;;10.30;100.00
65157;BME280;52745;49.794;18.258;2023-05-03T02:18:54;-16212.22;;;10.30;100.00
65157;BME280;52745;49.794;18.258;2023-05-03T02:21:25;-16209.06;;;10.18;100.00
65157;BME280;52745;49.794;18.258;2023-05-03T02:23:52;-16208.66;;;10.17;100.00
65157;BME280;52745;49.794;18.258;2023-05-03T02:26:21;-16206.34;;;10.08;100.00
65157;BME280;52745;49.794;18.258;2023-05-03T02:28:48;-16207.28;;;10.11;100.00
65157;BME280;52745;49.794;18.258;2023-05-03T02:31:14;-16207.84;;;10.13;100.00
65157;BME280;52745;49.794;18.258;2023-05-03T02:33:43;-16209.88;;;10.21;100.00
65157;BME280;52745;49.794;18.258;2023-05-03T02:36:09;-16211.38;;;10.27;100.00
65157;BME280;52745;49.794;18.258;2023-05-03T02:38:36;-16211.25;;;10.26;100.00
65157;BME280;52745;49.794;18.258;2023-05-03T02:41:03;-16213.03;;;10.33;100.00
65157;BME280;52745;49.794;18.258;2023-05-03T02:43:30;-16215.22;;;10.41;100.00
65157;BME280;52745;49.794;18.258;2023-05-03T02:45:57;-16214.13;;;10.37;100.00
65157;BME280;52745;49.794;18.258;2023-05-03T02:48:25;-16212.22;;;10.30;100.00
65157;BME280;52745;49.794;18.258;2023-05-03T02:50:52;-16212.22;;;10.30;100.00
65157;BME280;52745;49.794;18.258;2023-05-03T02:53:20;-16212.47;;;10.31;100.00
65157;BME280;52745;49.794;18.258;2023-05-03T02:55:47;-16213.56;;;10.35;100.00
65157;BME280;52745;49.794;18.258;2023-05-03T02:58:14;-16214.13;;;10.37;100.00
65157;BME280;52745;49.794;18.258;2023-05-03T03:00:41;-16212.47;;;10.31;100.00
65157;BME280;52745;49.794;18.258;2023-05-03T03:03:08;-16211.38;;;10.27;100.00
65157;BME280;52745;49.794;18.258;2023-05-03T03:05:35;-16209.88;;;10.21;100.00
65157;BME280;52745;49.794;18.258;2023-05-03T03:08:02;-16211.13;;;10.26;100.00
65157;BME280;52745;49.794;18.258;2023-05-03T03:10:29;-16211.53;;;10.27;100.00
65157;BME280;52745;49.794;18.258;2023-05-03T03:12:56;-16210.97;;;10.25;100.00
65157;BME280;52745;49.794;18.258;2023-05-03T03:15:29;-16210.56;;;10.24;100.00
65157;BME280;52745;49.794;18.258;2023-05-03T03:17:56;-16209.75;;;10.21;100.00
65157;BME280;52745;49.794;18.258;2023-05-03T03:20:24;-16207.69;;;10.13;100.00
65157;BME280;52745;49.794;18.258;2023-05-03T03:22:51;-16207.28;;;10.11;100.00
65157;BME280;52745;49.794;18.258;2023-05-03T03:25:18;-16208.66;;;10.17;100.00
65157;BME280;52745;49.794;18.258;2023-05-03T03:27:46;-16207.56;;;10.12;100.00
65157;BME280;52745;49.794;18.258;2023-05-03T03:30:12;-16206.22;;;10.07;100.00
65157;BME280;52745;49.794;18.258;2023-05-03T03:32:51;-16207.84;;;10.13;100.00
65157;BME280;52745;49.794;18.258;2023-05-03T03:35:25;-16205.13;;;10.03;100.00
65157;BME280;52745;49.794;18.258;2023-05-03T03:37:52;-16204.84;;;10.02;100.00
65157;BME280;52745;49.794;18.258;2023-05-03T03:40:20;-16203.59;;;9.98;100.00
65157;BME280;52745;49.794;18.258;2023-05-03T03:42:47;-16205.13;;;10.03;100.00
65157;BME280;52745;49.794;18.258;2023-05-03T03:45:14;-16203.47;;;9.97;100.00
65157;BME280;52745;49.794;18.258;2023-05-03T03:47:41;-16204.44;;;10.01;100.00
65157;BME280;52745;49.794;18.258;2023-05-03T03:50:08;-16202.66;;;9.94;100.00
65157;BME280;52745;49.794;18.258;2023-05-03T03:52:35;-16198.84;;;9.80;100.00
65157;BME280;52745;49.794;18.258;2023-05-03T03:55:03;-16196.38;;;9.70;100.00
65157;BME280;52745;49.794;18.258;2023-05-03T03:57:30;-16193.38;;;9.59;100.00
65157;BME280;52745;49.794;18.258;2023-05-03T03:59:58;-16195.56;;;9.67;100.00
65157;BME280;52745;49.794;18.258;2023-05-03T04:02:26;-16194.75;;;9.64;100.00
65157;BME280;52745;49.794;18.258;2023-05-03T04:04:53;-16193.38;;;9.59;100.00
65157;BME280;52745;49.794;18.258;2023-05-03T04:07:20;-16193.09;;;9.58;100.00
65157;BME280;52745;49.794;18.258;2023-05-03T04:09:47;-16192.56;;;9.56;100.00
65157;BME280;52745;49.794;18.258;2023-05-03T04:12:15;-16191.75;;;9.53;100.00
65157;BME280;52745;49.794;18.258;2023-05-03T04:14:44;-16188.75;;;9.42;100.00
65157;BME280;52745;49.794;18.258;2023-05-03T04:17:12;-16187.09;;;9.36;100.00
65157;BME280;52745;49.794;18.258;2023-05-03T04:19:39;-16188.19;;;9.40;100.00
65157;BME280;52745;49.794;18.258;2023-05-03T04:22:06;-16188.34;;;9.40;100.00
65157;BME280;52745;49.794;18.258;2023-05-03T04:24:33;-16187.09;;;9.36;100.00
65157;BME280;52745;49.794;18.258;2023-05-03T04:27:06;-16186.00;;;9.31;100.00
65157;BME280;52745;49.794;18.258;2023-05-03T04:29:36;-16183.00;;;9.20;100.00
65157;BME280;52745;49.794;18.258;2023-05-03T04:32:04;-16182.34;;;9.18;100.00
65157;BME280;52745;49.794;18.258;2023-05-03T04:34:33;-16180.00;;;9.09;100.00
65157;BME280;52745;49.794;18.258;2023-05-03T04:37:02;-16178.78;;;9.04;100.00
65157;BME280;52745;49.794;18.258;2023-05-03T04:39:31;-16179.75;;;9.08;100.00
65157;BME280;52745;49.794;18.258;2023-05-03T04:41:58;-16179.75;;;9.08;100.00
65157;BME280;52745;49.794;18.258;2023-05-03T04:44:25;-16180.28;;;9.10;100.00
65157;BME280;52745;49.794;18.258;2023-05-03T04:46:52;-16179.06;;;9.05;100.00
65157;BME280;52745;49.794;18.258;2023-05-03T04:49:19;-16177.81;;;9.01;100.00
65157;BME280;52745;49.794;18.258;2023-05-03T04:51:46;-16178.78;;;9.04;100.00
65157;BME280;52745;49.794;18.258;2023-05-03T04:54:13;-16176.06;;;8.94;100.00
65157;BME280;52745;49.794;18.258;2023-05-03T04:56:40;-16176.88;;;8.97;100.00
65157;BME280;52745;49.794;18.258;2023-05-03T04:59:12;-16175.09;;;8.90;100.00
65157;BME280;52745;49.794;18.258;2023-05-03T05:01:39;-16184.25;;;9.25;100.00
65157;BME280;52745;49.794;18.258;2023-05-03T05:04:07;-16183.44;;;9.22;100.00
65157;BME280;52745;49.794;18.258;2023-05-03T05:06:40;-16182.75;;;9.19;100.00
65157;BME280;52745;49.794;18.258;2023-05-03T05:09:23;-16208.25;;;10.15;100.00
65157;BME280;52745;49.794;18.258;2023-05-03T05:11:53;-16195.97;;;9.69;100.00
65157;BME280;52745;49.794;18.258;2023-05-03T05:14:20;-16198.28;;;9.78;100.00
65157;BME280;52745;49.794;18.258;2023-05-03T05:16:48;-16190.25;;;9.47;100.00
65157;BME280;52745;49.794;18.258;2023-05-03T05:19:15;-16214.78;;;10.40;100.00
65157;BME280;52745;49.794;18.258;2023-05-03T05:21:42;-16199.38;;;9.82;100.00
65157;BME280;52745;49.794;18.258;2023-05-03T05:24:09;-16195.03;;;9.65;100.00
65157;BME280;52745;49.794;18.258;2023-05-03T05:26:37;-16181.50;;;9.15;100.00
65157;BME280;52745;49.794;18.258;2023-05-03T05:29:04;-16173.06;;;8.83;100.00
65157;BME280;52745;49.794;18.258;2023-05-03T05:31:31;-16166.63;;;8.59;100.00
65157;BME280;52745;49.794;18.258;2023-05-03T05:33:58;-16162.81;;;8.44;100.00
65157;BME280;52745;49.794;18.258;2023-05-03T05:36:25;-16158.72;;;8.29;100.00
65157;BME280;52745;49.794;18.258;2023-05-03T05:38:52;-16157.34;;;8.24;100.00
65157;BME280;52745;49.794;18.258;2023-05-03T05:41:19;-16155.56;;;8.17;100.00
65157;BME280;52745;49.794;18.258;2023-05-03T05:43:46;-16152.16;;;8.04;100.00
65157;BME280;52745;49.794;18.258;2023-05-03T05:46:14;-16152.03;;;8.04;100.00
65157;BME280;52745;49.794;18.258;2023-05-03T05:48:42;-16154.22;;;8.12;100.00
65157;BME280;52745;49.794;18.258;2023-05-03T05:51:09;-16154.63;;;8.14;100.00
65157;BME280;52745;49.794;18.258;2023-05-03T05:53:36;-16154.34;;;8.13;100.00
65157;BME280;52745;49.794;18.258;2023-05-03T05:56:03;-16154.06;;;8.12;100.00
65157;BME280;52745;49.794;18.258;2023-05-03T05:58:33;-16155.72;;;8.18;100.00
65157;BME280;52745;49.794;18.258;2023-05-03T06:01:00;-16155.44;;;8.17;100.00
65157;BME280;52745;49.794;18.258;2023-05-03T06:03:29;-16156.53;;;8.21;100.00
65157;BME280;52745;49.794;18.258;2023-05-03T06:05:57;-16155.72;;;8.18;100.00
65157;BME280;52745;49.794;18.258;2023-05-03T06:08:24;-16153.13;;;8.08;100.00
65157;BME280;52745;49.794;18.258;2023-05-03T06:10:51;-16152.16;;;8.04;100.00
65157;BME280;52745;49.794;18.258;2023-05-03T06:13:21;-16153.53;;;8.09;100.00
65157;BME280;52745;49.794;18.258;2023-05-03T06:15:49;-16155.03;;;8.15;100.00
65157;BME280;52745;49.794;18.258;2023-05-03T06:18:16;-16155.16;;;8.16;100.00
65157;BME280;52745;49.794;18.258;2023-05-03T06:20:48;-16154.34;;;8.13;100.00
65157;BME280;52745;49.794;18.258;2023-05-03T06:23:15;-16153.66;;;8.10;100.00
65157;BME280;52745;49.794;18.258;2023-05-03T06:25:46;-16153.53;;;8.09;100.00
65157;BME280;52745;49.794;18.258;2023-05-03T06:28:13;-16156.25;;;8.20;100.00
65157;BME280;52745;49.794;18.258;2023-05-03T06:30:40;-16158.59;;;8.28;100.00
65157;BME280;52745;49.794;18.258;2023-05-03T06:33:11;-16159.41;;;8.32;100.00
65157;BME280;52745;49.794;18.258;2023-05-03T06:35:40;-16158.72;;;8.29;100.00
65157;BME280;52745;49.794;18.258;2023-05-03T06:38:07;-16159.53;;;8.32;100.00
65157;BME280;52745;49.794;18.258;2023-05-03T06:40:34;-16157.22;;;8.23;100.00
65157;BME280;52745;49.794;18.258;2023-05-03T06:43:03;-16157.22;;;8.23;100.00
65157;BME280;52745;49.794;18.258;2023-05-03T06:45:38;-16155.97;;;8.19;100.00
65157;BME280;52745;49.794;18.258;2023-05-03T06:48:05;-16155.84;;;8.18;100.00
65157;BME280;52745;49.794;18.258;2023-05-03T06:50:32;-16157.06;;;8.23;100.00
65157;BME280;52745;49.794;18.258;2023-05-03T06:52:58;-16158.72;;;8.29;100.00
65157;BME280;52745;49.794;18.258;2023-05-03T06:55:25;-16158.16;;;8.27;100.00
65157;BME280;52745;49.794;18.258;2023-05-03T06:57:53;-16156.81;;;8.22;100.00
65157;BME280;52745;49.794;18.258;2023-05-03T07:00:20;-16158.72;;;8.29;100.00
65157;BME280;52745;49.794;18.258;2023-05-03T07:02:48;-16159.81;;;8.33;100.00
65157;BME280;52745;49.794;18.258;2023-05-03T07:05:15;-16158.44;;;8.28;100.00
65157;BME280;52745;49.794;18.258;2023-05-03T07:07:42;-16158.16;;;8.27;100.00
65157;BME280;52745;49.794;18.258;2023-05-03T07:10:09;-16160.34;;;8.35;100.00
65157;BME280;52745;49.794;18.258;2023-05-03T07:12:35;-16158.59;;;8.28;100.00
65157;BME280;52745;49.794;18.258;2023-05-03T07:15:02;-16160.91;;;8.37;100.00
65157;BME280;52745;49.794;18.258;2023-05-03T07:17:29;-16163.91;;;8.48;100.00
65157;BME280;52745;49.794;18.258;2023-05-03T07:19:56;-16161.72;;;8.40;100.00
65157;BME280;52745;49.794;18.258;2023-05-03T07:22:23;-16161.03;;;8.38;100.00
65157;BME280;52745;49.794;18.258;2023-05-03T07:24:53;-16158.84;;;8.29;100.00
65157;BME280;52745;49.794;18.258;2023-05-03T07:27:20;-16158.31;;;8.27;100.00
65157;BME280;52745;49.794;18.258;2023-05-03T07:29:48;-16159.69;;;8.33;100.00
65157;BME280;52745;49.794;18.258;2023-05-03T07:32:14;-16159.53;;;8.32;100.00
65157;BME280;52745;49.794;18.258;2023-05-03T07:34:42;-16160.63;;;8.36;100.00
65157;BME280;52745;49.794;18.258;2023-05-03T07:37:08;-16159.41;;;8.32;100.00
65157;BME280;52745;49.794;18.258;2023-05-03T07:39:35;-16160.75;;;8.37;100.00
65157;BME280;52745;49.794;18.258;2023-05-03T07:42:02;-16162.41;;;8.43;100.00
65157;BME280;52745;49.794;18.258;2023-05-03T07:44:29;-16165.28;;;8.54;100.00
65157;BME280;52745;49.794;18.258;2023-05-03T07:46:55;-16169.63;;;8.70;100.00
65157;BME280;52745;49.794;18.258;2023-05-03T07:49:22;-16171.28;;;8.76;100.00
65157;BME280;52745;49.794;18.258;2023-05-03T07:51:49;-16174.81;;;8.89;100.00
65157;BME280;52745;49.794;18.258;2023-05-03T07:54:16;-16179.19;;;9.06;100.00
65157;BME280;52745;49.794;18.258;2023-05-03T07:56:43;-16179.47;;;9.07;100.00
65157;BME280;52745;49.794;18.258;2023-05-03T07:59:09;-16182.34;;;9.18;100.00
65157;BME280;52745;49.794;18.258;2023-05-03T08:01:36;-16181.25;;;9.14;100.00
65157;BME280;52745;49.794;18.258;2023-05-03T08:04:04;-16180.81;;;9.12;100.00
65157;BME280;52745;49.794;18.258;2023-05-03T08:06:31;-16175.38;;;8.91;100.00
65157;BME280;52745;49.794;18.258;2023-05-03T08:08:58;-16172.78;;;8.82;100.00
65157;BME280;52745;49.794;18.258;2023-05-03T08:11:26;-16172.38;;;8.80;100.00
65157;BME280;52745;49.794;18.258;2023-05-03T08:13:54;-16173.72;;;8.85;100.00
65157;BME280;52745;49.794;18.258;2023-05-03T08:16:21;-16178.78;;;9.04;100.00
65157;BME280;52745;49.794;18.258;2023-05-03T08:18:48;-16177.81;;;9.01;98.61
65157;BME280;52745;49.794;18.258;2023-05-03T08:21:14;-16178.38;;;9.03;99.20
65157;BME280;52745;49.794;18.258;2023-05-03T08:23:42;-16178.50;;;9.03;99.84
65157;BME280;52745;49.794;18.258;2023-05-03T08:26:10;-16180.81;;;9.12;99.25
65157;BME280;52745;49.794;18.258;2023-05-03T08:28:39;-16181.09;;;9.13;97.01
65157;BME280;52745;49.794;18.258;2023-05-03T08:31:06;-16180.28;;;9.10;98.65
65157;BME280;52745;49.794;18.258;2023-05-03T08:33:33;-16180.00;;;9.09;97.57
65157;BME280;52745;49.794;18.258;2023-05-03T08:35:59;-16182.19;;;9.17;97.47
65157;BME280;52745;49.794;18.258;2023-05-03T08:38:27;-16183.84;;;9.23;97.07
65157;BME280;52745;49.794;18.258;2023-05-03T08:40:57;-16185.47;;;9.29;97.15
65157;BME280;52745;49.794;18.258;2023-05-03T08:43:26;-16187.78;;;9.38;96.60
65157;BME280;52745;49.794;18.258;2023-05-03T08:45:53;-16186.28;;;9.32;97.45
65157;BME280;52745;49.794;18.258;2023-05-03T08:48:21;-16187.94;;;9.39;95.99
65157;BME280;52745;49.794;18.258;2023-05-03T08:50:50;-16182.06;;;9.17;96.23
65157;BME280;52745;49.794;18.258;2023-05-03T08:53:17;-16186.00;;;9.31;96.66
65157;BME280;52745;49.794;18.258;2023-05-03T08:55:45;-16189.56;;;9.45;97.05
65157;BME280;52745;49.794;18.258;2023-05-03T08:58:12;-16191.06;;;9.50;96.30
65157;BME280;52745;49.794;18.258;2023-05-03T09:00:39;-16192.00;;;9.54;96.04
65157;BME280;52745;49.794;18.258;2023-05-03T09:03:10;-16192.16;;;9.55;95.77
65157;BME280;52745;49.794;18.258;2023-05-03T09:05:36;-16191.88;;;9.53;95.68
65157;BME280;52745;49.794;18.258;2023-05-03T09:08:08;-16191.75;;;9.53;95.14
65157;BME280;52745;49.794;18.258;2023-05-03T09:10:40;-16190.94;;;9.50;96.39
65157;BME280;52745;49.794;18.258;2023-05-03T09:13:08;-16191.88;;;9.53;96.37
65157;BME280;52745;49.794;18.258;2023-05-03T09:15:35;-16195.03;;;9.65;96.83
65157;BME280;52745;49.794;18.258;2023-05-03T09:18:13;-16199.09;;;9.81;96.77
65157;BME280;52745;49.794;18.258;2023-05-03T09:20:41;-16199.94;;;9.84;94.25
65157;BME280;52745;49.794;18.258;2023-05-03T09:23:18;-16202.53;;;9.93;95.17
65157;BME280;52745;49.794;18.258;2023-05-03T09:25:48;-16208.66;;;10.17;94.75
65157;BME280;52745;49.794;18.258;2023-05-03T09:28:15;-16209.59;;;10.20;93.76
65157;BME280;52745;49.794;18.258;2023-05-03T09:30:43;-16211.66;;;10.28;94.12
65157;BME280;52745;49.794;18.258;2023-05-03T09:33:10;-16216.72;;;10.47;92.92
65157;BME280;52745;49.794;18.258;2023-05-03T09:35:37;-16218.88;;;10.55;92.12
65157;BME280;52745;49.794;18.258;2023-05-03T09:38:04;-16215.22;;;10.41;92.82
65157;BME280;52745;49.794;18.258;2023-05-03T09:40:31;-16220.53;;;10.61;92.95
65157;BME280;52745;49.794;18.258;2023-05-03T09:43:09;-16221.75;;;10.66;90.42
65157;BME280;52745;49.794;18.258;2023-05-03T09:45:37;-16217.38;;;10.49;90.30
65157;BME280;52745;49.794;18.258;2023-05-03T09:48:05;-16217.38;;;10.49;91.19
65157;BME280;52745;49.794;18.258;2023-05-03T09:50:33;-16220.25;;;10.60;91.12
65157;BME280;52745;49.794;18.258;2023-05-03T09:53:04;-16222.56;;;10.69;90.75
65157;BME280;52745;49.794;18.258;2023-05-03T09:55:36;-16217.66;;;10.50;88.74
65157;BME280;52745;49.794;18.258;2023-05-03T09:58:04;-16219.16;;;10.56;89.92
65157;BME280;52745;49.794;18.258;2023-05-03T10:00:35;-16216.72;;;10.47;88.88
65157;BME280;52745;49.794;18.258;2023-05-03T10:03:10;-16215.22;;;10.41;89.39
65157;BME280;52745;49.794;18.258;2023-05-03T10:05:47;-16219.03;;;10.55;90.54
65157;BME280;52745;49.794;18.258;2023-05-03T10:08:24;-16224.06;;;10.74;90.40
65157;BME280;52745;49.794;18.258;2023-05-03T10:10:53;-16226.13;;;10.82;91.96
65157;BME280;52745;49.794;18.258;2023-05-03T10:13:21;-16226.66;;;10.84;90.92
65157;BME280;52745;49.794;18.258;2023-05-03T10:15:53;-16225.44;;;10.80;88.81
65157;BME280;52745;49.794;18.258;2023-05-03T10:18:24;-16223.53;;;10.72;89.06
65157;BME280;52745;49.794;18.258;2023-05-03T10:20:59;-16222.97;;;10.70;88.44
65157;BME280;52745;49.794;18.258;2023-05-03T10:23:27;-16225.16;;;10.79;87.90
65157;BME280;52745;49.794;18.258;2023-05-03T10:28:33;-16234.03;;;11.12;90.12
65157;BME280;52745;49.794;18.258;2023-05-03T10:30:59;-16234.97;;;11.15;87.88
65157;BME280;52745;49.794;18.258;2023-05-03T10:33:31;-16232.09;;;11.05;86.46
65157;BME280;52745;49.794;18.258;2023-05-03T10:36:04;-16232.53;;;11.06;87.11
65157;BME280;52745;49.794;18.258;2023-05-03T10:38:31;-16232.09;;;11.05;86.08
65157;BME280;52745;49.794;18.258;2023-05-03T10:40:58;-16233.34;;;11.09;85.89
65157;BME280;52745;49.794;18.258;2023-05-03T10:45:59;-16230.75;;;11.00;85.09
65157;BME280;52745;49.794;18.258;2023-05-03T10:48:26;-16225.56;;;10.80;84.54
65157;BME280;52745;49.794;18.258;2023-05-03T10:50:54;-16225.28;;;10.79;86.07
65157;BME280;52745;49.794;18.258;2023-05-03T10:53:39;-16223.53;;;10.72;85.31
65157;BME280;52745;49.794;18.258;2023-05-03T10:56:09;-16224.22;;;10.75;85.62
65157;BME280;52745;49.794;18.258;2023-05-03T10:58:41;-16223.13;;;10.71;86.63
65157;BME280;52745;49.794;18.258;2023-05-03T11:01:09;-16225.72;;;10.81;86.11
65157;BME280;52745;49.794;18.258;2023-05-03T11:06:33;-16223.53;;;10.72;85.72
65157;BME280;52745;49.794;18.258;2023-05-03T11:09:06;-16224.63;;;10.76;85.25
65157;BME280;52745;49.794;18.258;2023-05-03T11:11:38;-16225.16;;;10.79;84.20
65157;BME280;52745;49.794;18.258;2023-05-03T11:14:05;-16226.38;;;10.83;84.94
65157;BME280;52745;49.794;18.258;2023-05-03T11:16:34;-16226.66;;;10.84;84.07
65157;BME280;52745;49.794;18.258;2023-05-03T11:19:02;-16230.47;;;10.98;83.99
65157;BME280;52745;49.794;18.258;2023-05-03T11:21:28;-16233.34;;;11.09;83.05
65157;BME280;52745;49.794;18.258;2023-05-03T11:23:57;-16236.19;;;11.20;85.94
65157;BME280;52745;49.794;18.258;2023-05-03T11:26:24;-16236.59;;;11.22;83.41
65157;BME280;52745;49.794;18.258;2023-05-03T11:28:52;-16238.66;;;11.29;84.08
65157;BME280;52745;49.794;18.258;2023-05-03T11:31:19;-16235.78;;;11.18;83.80
65157;BME280;52745;49.794;18.258;2023-05-03T11:33:48;-16237.84;;;11.26;84.13
65157;BME280;52745;49.794;18.258;2023-05-03T11:36:14;-16239.75;;;11.33;82.27
65157;BME280;52745;49.794;18.258;2023-05-03T11:38:41;-16239.75;;;11.33;81.87
65157;BME280;52745;49.794;18.258;2023-05-03T11:41:11;-16238.94;;;11.30;81.81
65157;BME280;52745;49.794;18.258;2023-05-03T11:43:47;-16241.09;;;11.38;82.62
65157;BME280;52745;49.794;18.258;2023-05-03T11:46:17;-16242.06;;;11.42;81.92
65157;BME280;52745;49.794;18.258;2023-05-03T11:48:46;-16243.00;;;11.46;81.60
65157;BME280;52745;49.794;18.258;2023-05-03T11:51:13;-16246.28;;;11.58;82.35
65157;BME280;52745;49.794;18.258;2023-05-03T11:53:41;-16246.69;;;11.59;82.32
65157;BME280;52745;49.794;18.258;2023-05-03T11:56:14;-16252.00;;;11.79;82.90
65157;BME280;52745;49.794;18.258;2023-05-03T11:58:50;-16250.66;;;11.74;80.56
65157;BME280;52745;49.794;18.258;2023-05-03T12:01:19;-16252.56;;;11.81;81.95
65157;BME280;52745;49.794;18.258;2023-05-03T12:03:52;-16256.09;;;11.95;80.27
65157;BME280;52745;49.794;18.258;2023-05-03T12:06:19;-16259.09;;;12.06;79.48
65157;BME280;52745;49.794;18.258;2023-05-03T12:08:46;-16261.94;;;12.17;80.60
65157;BME280;52745;49.794;18.258;2023-05-03T12:11:12;-16260.31;;;12.11;78.78
65157;BME280;52745;49.794;18.258;2023-05-03T12:13:40;-16257.19;;;11.99;77.79
65157;BME280;52745;49.794;18.258;2023-05-03T12:16:08;-16261.69;;;12.16;80.29
65157;BME280;52745;49.794;18.258;2023-05-03T12:18:54;-16262.91;;;12.20;79.48
65157;BME280;52745;49.794;18.258;2023-05-03T12:21:24;-16260.31;;;12.11;79.69
65157;BME280;52745;49.794;18.258;2023-05-03T12:23:51;-16259.91;;;12.09;80.48
65157;BME280;52745;49.794;18.258;2023-05-03T12:26:18;-16259.91;;;12.09;79.29
65157;BME280;52745;49.794;18.258;2023-05-03T12:28:47;-16260.31;;;12.11;80.74
65157;BME280;52745;49.794;18.258;2023-05-03T12:31:14;-16262.91;;;12.20;79.63
65157;BME280;52745;49.794;18.258;2023-05-03T12:33:42;-16263.72;;;12.24;79.82
65157;BME280;52745;49.794;18.258;2023-05-03T12:36:09;-16267.00;;;12.36;79.63
65157;BME280;52745;49.794;18.258;2023-05-03T12:38:36;-16265.91;;;12.32;79.90
65157;BME280;52745;49.794;18.258;2023-05-03T12:41:03;-16268.50;;;12.41;80.38
65157;BME280;52745;49.794;18.258;2023-05-03T12:43:30;-16268.63;;;12.42;79.16
65157;BME280;52745;49.794;18.258;2023-05-03T12:45:57;-16263.03;;;12.21;77.04
65157;BME280;52745;49.794;18.258;2023-05-03T12:48:29;-16261.69;;;12.16;77.88
65157;BME280;52745;49.794;18.258;2023-05-03T12:50:56;-16263.44;;;12.23;77.33
65157;BME280;52745;49.794;18.258;2023-05-03T12:53:24;-16265.91;;;12.32;78.10
65157;BME280;52745;49.794;18.258;2023-05-03T12:55:52;-16271.34;;;12.52;77.16
65157;BME280;52745;49.794;18.258;2023-05-03T12:58:19;-16277.88;;;12.77;77.06
65157;BME280;52745;49.794;18.258;2023-05-03T13:00:46;-16281.28;;;12.90;77.40
65157;BME280;52745;49.794;18.258;2023-05-03T13:03:15;-16287.97;;;13.15;76.79